createdAt,value
2023-05-13T00:00:24.754Z,10.93
2023-05-13T00:05:27.214Z,10.74
2023-05-13T00:10:29.734Z,10.17
2023-05-13T00:15:32.093Z,10.79
2023-05-13T00:20:34.552Z,10.45
2023-05-13T00:25:38.464Z,10.71
2023-05-13T00:30:44.820Z,10.68
2023-05-13T00:35:47.312Z,10.42
2023-05-13T00:40:50.476Z,10.34
2023-05-13T00:45:53.022Z,9.86
2023-05-13T00:50:55.942Z,10.55
2023-05-13T00:55:58.325Z,10.14
2023-05-13T01:01:07.186Z,10.48
2023-05-13T01:06:15.010Z,9.83
2023-05-13T01:11:39.574Z,10.46
2023-05-13T01:17:08.878Z,10.38
2023-05-13T01:22:11.676Z,10.10
2023-05-13T01:27:14.711Z,9.64
2023-05-13T01:32:17.407Z,10.01
2023-05-13T01:37:21.438Z,10.12
2023-05-13T01:42:25.005Z,9.94
2023-05-13T01:47:29.079Z,10.06
2023-05-13T01:52:32.903Z,9.64
2023-05-13T01:57:35.597Z,9.42
2023-05-13T02:02:38.374Z,9.99
2023-05-13T02:07:40.843Z,9.98
2023-05-13T02:12:45.486Z,9.99
2023-05-13T02:17:48.082Z,9.70
2023-05-13T02:22:50.774Z,9.94
2023-05-13T02:27:53.231Z,9.82
2023-05-13T02:32:57.182Z,9.81
2023-05-13T02:37:59.649Z,9.35
2023-05-13T02:43:04.009Z,8.70
2023-05-13T02:48:20.211Z,9.84
2023-05-13T02:53:23.561Z,10.02
2023-05-13T02:58:30.810Z,10.08
2023-05-13T03:03:34.790Z,10.13
2023-05-13T03:08:37.546Z,9.86
2023-05-13T03:13:39.905Z,9.38
2023-05-13T03:18:42.520Z,9.84
2023-05-13T03:23:45.260Z,10.03
2023-05-13T03:28:47.827Z,10.38
2023-05-13T03:33:51.147Z,10.73
2023-05-13T03:38:53.664Z,10.87
2023-05-13T03:43:56.194Z,11.21
2023-05-13T03:48:58.775Z,11.43
2023-05-13T03:54:04.117Z,11.47
2023-05-13T03:59:06.979Z,11.66
2023-05-13T04:04:11.546Z,11.82
2023-05-13T04:09:13.940Z,12.00
2023-05-13T04:14:18.420Z,11.85
2023-05-13T04:19:20.857Z,11.64
2023-05-13T04:24:23.208Z,12.68
2023-05-13T04:29:25.819Z,12.74
2023-05-13T04:34:28.387Z,13.49
2023-05-13T04:39:31.348Z,12.92
2023-05-13T04:44:35.395Z,12.43
2023-05-13T04:49:37.910Z,12.03
2023-05-13T04:54:42.897Z,14.20
2023-05-13T04:59:46.209Z,13.90
2023-05-13T05:04:49.867Z,14.97
2023-05-13T05:09:53.457Z,15.20
2023-05-13T05:14:56.823Z,12.93
2023-05-13T05:20:00.182Z,14.68
2023-05-13T05:25:03.940Z,15.74
2023-05-13T05:30:07.376Z,16.09
2023-05-13T05:35:11.532Z,16.32
2023-05-13T05:40:14.409Z,16.52
2023-05-13T05:45:17.143Z,16.70
2023-05-13T05:50:21.138Z,16.66
2023-05-13T05:55:23.960Z,17.05
2023-05-13T06:00:27.816Z,16.51
2023-05-13T06:05:31.029Z,17.09
2023-05-13T06:10:33.408Z,17.44
2023-05-13T06:15:37.079Z,17.44
2023-05-13T06:20:40.378Z,17.51
2023-05-13T06:25:42.912Z,17.77
2023-05-13T06:30:46.287Z,18.01
2023-05-13T06:35:50.288Z,18.21
2023-05-13T06:40:56.378Z,17.78
2023-05-13T06:46:05.616Z,18.70
2023-05-13T06:51:08.234Z,18.78
2023-05-13T06:56:10.614Z,19.08
2023-05-13T07:01:13.174Z,18.92
2023-05-13T07:06:15.805Z,19.26
2023-05-13T07:11:18.707Z,19.39
2023-05-13T07:16:21.597Z,19.58
2023-05-13T07:21:24.249Z,19.28
2023-05-13T07:26:26.853Z,19.40
2023-05-13T07:31:30.922Z,19.56
2023-05-13T07:36:33.524Z,19.75
2023-05-13T07:41:36.966Z,20.35
2023-05-13T07:46:42.605Z,20.34
2023-05-13T07:51:45.056Z,20.16
2023-05-13T07:56:48.406Z,20.42
2023-05-13T08:01:51.949Z,20.84
2023-05-13T08:06:54.476Z,20.95
2023-05-13T08:11:57.257Z,20.87
2023-05-13T08:16:59.772Z,21.09
2023-05-13T08:22:02.276Z,21.18
2023-05-13T08:27:06.042Z,21.02
2023-05-13T08:32:08.580Z,21.34
2023-05-13T08:37:11.035Z,21.61
2023-05-13T08:42:15.533Z,21.62
2023-05-13T08:47:36.831Z,21.66
2023-05-13T08:52:40.477Z,21.86
2023-05-13T08:57:43.123Z,21.74
2023-05-13T09:02:45.941Z,21.39
2023-05-13T09:07:48.527Z,22.09
2023-05-13T09:12:55.549Z,22.31
2023-05-13T09:18:05.102Z,22.38
2023-05-13T09:23:11.878Z,22.48
2023-05-13T09:28:15.293Z,22.57
2023-05-13T09:33:22.106Z,22.74
2023-05-13T09:38:29.695Z,22.48
2023-05-13T09:43:33.413Z,22.75
2023-05-13T09:48:38.387Z,22.81
2023-05-13T09:53:41.664Z,22.83
2023-05-13T09:58:52.302Z,22.89
2023-05-13T10:03:56.732Z,22.75
2023-05-13T10:09:03.624Z,23.23
2023-05-13T10:14:07.189Z,23.33
2023-05-13T10:19:10.762Z,23.42
2023-05-13T10:24:14.017Z,23.42
2023-05-13T10:29:17.441Z,23.31
2023-05-13T10:34:19.895Z,23.64
2023-05-13T10:39:36.167Z,23.69
2023-05-13T10:44:38.576Z,23.54
2023-05-13T10:49:41.124Z,23.58
2023-05-13T10:54:43.518Z,23.63
2023-05-13T11:00:16.428Z,23.87
2023-05-13T11:05:22.386Z,23.87
2023-05-13T11:10:32.256Z,23.81
2023-05-13T11:15:51.198Z,23.83
2023-05-13T11:20:54.283Z,23.87
2023-05-13T11:26:19.312Z,23.73
2023-05-13T11:31:24.106Z,23.58
2023-05-13T11:36:31.301Z,23.63
2023-05-13T11:41:34.721Z,23.66
2023-05-13T11:46:37.625Z,23.96
2023-05-13T11:51:40.465Z,23.77
2023-05-13T11:56:43.602Z,23.98
2023-05-13T12:01:46.245Z,24.12
2023-05-13T12:06:49.474Z,24.34
2023-05-13T12:11:53.165Z,24.22
2023-05-13T12:16:56.880Z,24.22
2023-05-13T12:22:00.133Z,24.06
2023-05-13T12:27:09.437Z,24.12
2023-05-13T12:32:17.365Z,24.23
2023-05-13T12:37:19.827Z,23.92
2023-05-13T12:42:22.618Z,24.07
2023-05-13T12:47:25.302Z,24.10
2023-05-13T12:52:27.859Z,24.27
2023-05-13T12:57:32.241Z,24.15
2023-05-13T13:02:34.954Z,24.00
2023-05-13T13:07:38.489Z,24.17
2023-05-13T13:12:41.032Z,24.31
2023-05-13T13:17:48.392Z,24.25
2023-05-13T13:22:50.859Z,24.28
2023-05-13T13:27:53.193Z,24.40
2023-05-13T13:32:55.814Z,24.46
2023-05-13T13:37:58.258Z,24.30
2023-05-13T13:43:00.754Z,24.34
2023-05-13T13:48:03.337Z,24.15
2023-05-13T13:53:06.032Z,24.31
2023-05-13T13:58:08.535Z,24.28
2023-05-13T14:03:11.289Z,24.38
2023-05-13T14:08:13.966Z,24.15
2023-05-13T14:13:16.666Z,24.33
2023-05-13T14:18:19.040Z,23.94
2023-05-13T14:23:21.609Z,23.81
2023-05-13T14:28:25.105Z,23.72
2023-05-13T14:33:27.788Z,23.58
2023-05-13T14:38:30.247Z,23.71
2023-05-13T14:43:32.703Z,23.52
2023-05-13T14:48:35.155Z,23.29
2023-05-13T14:53:37.657Z,23.26
2023-05-13T14:58:40.036Z,23.28
2023-05-13T15:03:43.587Z,23.15
2023-05-13T15:08:46.210Z,22.91
2023-05-13T15:13:48.749Z,22.92
2023-05-13T15:18:51.404Z,22.64
2023-05-13T15:23:53.862Z,22.69
2023-05-13T15:28:56.303Z,22.55
2023-05-13T15:33:58.712Z,22.47
2023-05-13T15:39:02.883Z,22.51
2023-05-13T15:44:05.666Z,22.08
2023-05-13T15:49:08.260Z,22.41
2023-05-13T15:54:10.868Z,22.18
2023-05-13T15:59:13.449Z,22.23
2023-05-13T16:04:16.731Z,22.03
2023-05-13T16:09:19.329Z,21.03
2023-05-13T16:14:22.096Z,21.72
2023-05-13T16:19:24.742Z,21.73
2023-05-13T16:24:27.195Z,21.61
2023-05-13T16:29:29.832Z,21.42
2023-05-13T16:34:32.181Z,21.00
2023-05-13T16:39:34.684Z,21.38
2023-05-13T16:44:37.252Z,21.20
2023-05-13T16:49:40.276Z,21.23
2023-05-13T16:54:45.615Z,21.05
2023-05-13T16:59:48.471Z,20.64
2023-05-13T17:04:51.754Z,20.81
2023-05-13T17:09:54.223Z,20.66
2023-05-13T17:14:56.922Z,20.04
2023-05-13T17:19:59.453Z,20.80
2023-05-13T17:25:02.087Z,20.30
2023-05-13T17:30:06.579Z,20.46
2023-05-13T17:35:10.049Z,20.30
2023-05-13T17:40:13.003Z,20.10
2023-05-13T17:45:15.556Z,19.90
2023-05-13T17:50:18.877Z,19.50
2023-05-13T17:55:21.436Z,19.37
2023-05-13T18:00:25.475Z,19.31
2023-05-13T18:05:28.139Z,19.20
2023-05-13T18:10:30.791Z,18.82
2023-05-13T18:15:33.493Z,18.95
2023-05-13T18:20:38.305Z,18.64
2023-05-13T18:25:52.462Z,18.59
2023-05-13T18:31:01.037Z,18.25
2023-05-13T18:36:03.689Z,18.42
2023-05-13T18:41:07.159Z,18.02
2023-05-13T18:46:10.051Z,18.15
2023-05-13T18:51:12.609Z,17.74
2023-05-13T18:56:15.293Z,17.59
2023-05-13T19:01:17.996Z,17.57
2023-05-13T19:06:20.786Z,17.12
2023-05-13T19:11:23.546Z,17.23
2023-05-13T19:16:26.706Z,17.32
2023-05-13T19:21:29.417Z,16.82
2023-05-13T19:26:31.969Z,17.20
2023-05-13T19:31:35.881Z,17.22
2023-05-13T19:36:38.863Z,17.15
2023-05-13T19:41:41.425Z,16.79
2023-05-13T19:46:44.113Z,16.81
2023-05-13T19:51:47.020Z,16.65
2023-05-13T19:56:49.508Z,16.85
2023-05-13T20:01:52.330Z,16.81
2023-05-13T20:06:56.961Z,16.63
2023-05-13T20:12:00.264Z,16.59
2023-05-13T20:17:02.776Z,16.59
2023-05-13T20:22:05.492Z,16.44
2023-05-13T20:27:07.844Z,16.45
2023-05-13T20:32:10.975Z,16.33
2023-05-13T20:37:17.129Z,16.19
2023-05-13T20:42:21.993Z,16.18
2023-05-13T20:47:24.456Z,16.14
2023-05-13T20:52:26.946Z,16.02
2023-05-13T20:57:29.374Z,15.97
2023-05-13T21:02:31.920Z,15.75
2023-05-13T21:07:35.719Z,15.50
2023-05-13T21:12:38.233Z,15.89
2023-05-13T21:17:41.195Z,15.70
2023-05-13T21:22:43.709Z,15.52
2023-05-13T21:27:46.388Z,15.43
2023-05-13T21:32:48.922Z,15.47
2023-05-13T21:37:56.097Z,15.16
2023-05-13T21:43:03.878Z,15.39
2023-05-13T21:48:07.280Z,15.23
2023-05-13T21:53:10.176Z,15.24
2023-05-13T21:58:12.870Z,15.18
2023-05-13T22:03:15.456Z,15.06
2023-05-13T22:08:18.145Z,14.83
2023-05-13T22:13:21.958Z,14.64
2023-05-13T22:18:24.881Z,14.77
2023-05-13T22:23:27.814Z,14.43
2023-05-13T22:28:30.219Z,14.51
2023-05-13T22:33:32.673Z,14.53
2023-05-13T22:38:35.816Z,14.42
2023-05-13T22:43:38.702Z,14.24
2023-05-13T22:48:41.214Z,14.13
2023-05-13T22:53:43.655Z,13.86
2023-05-13T22:58:46.693Z,14.12
2023-05-13T23:03:49.126Z,13.88
2023-05-13T23:08:51.672Z,13.63
2023-05-13T23:13:54.069Z,13.65
2023-05-13T23:18:56.726Z,13.69
2023-05-13T23:23:59.893Z,13.12
2023-05-13T23:29:02.292Z,13.53
2023-05-13T23:34:04.726Z,12.95
2023-05-13T23:39:07.214Z,12.88
2023-05-13T23:44:09.590Z,12.85
2023-05-13T23:49:12.307Z,13.18
2023-05-13T23:54:14.927Z,12.86
2023-05-13T23:59:17.422Z,12.71
